Terminal Aerodrome Forecast
Issued by NWS

Home | Current Version | Previous Version | Text Only | Print | Product List | Glossary On
Versions: 1 2 3 4 5 6 7 8 9 10 11 12 13 14
000
FTUS43 KABR 212327
TAFPIR
TAF
KPIR 212327Z 2200/2224 VRB05KT P6SM OVC100
     FM220700 35009KT P6SM OVC025
     FM220900 35010KT P6SM OVC015
     FM221200 34010KT P6SM BKN008
     FM221600 33010KT P6SM SCT025
     FM222300 33007KT P6SM FEW250=

USA.gov is the U.S. government's official web portal to all federal, state and local government web resources and services.